Memanbetsu Airport
RJCM : now visible

Airfield :











YOU CAN JOIN US ON...

 
LOGIN :

Register | Disclaimer

   EN    FR    IT 

 









Legend :    VFR   Marginal VFR   IFR   Intensive IFR   Very Intensive IFR
Visi :
Ceiling :
>= 8 km
>= 3000ft
5 to 8 km
1000 to 3000 ft
1500m to 5 km
500 to 1000 ft
800 to 1500m
200 to 500 ft
< 800m
< 200 ft
Symbols :   Thunderstorms  Fog  Heavy snow  Heavy precipitations  Wind > 20 kt






- Airport Elevation : 135 ft
- IATA code : MMB


RJCM - Memanbetsu

CURRENT METAR :
  • 201100Z 30006KT 270V330 9999 FEW020 M00/M08 Q1015

EXPIRED METARs :
  • 201000Z 30008G18KT 270V360 9999 FEW020 00/M09 Q1014
  • 200900Z 30010G22KT 270V340 9999 FEW015 01/M09 Q1014

TAF TAF RJCM
Valid from the 20 at 12:00 until the 21 at 18:00 UTC


201114Z 2012/2118 30005KT 9999 FEW020 BKN040
BECMG 2015/2017 21005KT
BECMG 2100/2103 33005KT
BECMG 2106/2109 19006KT



MET'MAP, your aeronautical weather chart ! - Copyright ORBIFLY December 2007 - Disclaimer

ORBIFLY MET'MAP TEAM :

Programming & Development : Alexandra Zaïnal
Concept & Development : Baudouin d'Aumeries
Co-Development & Prog : Marc-Olivier Méhu
Technical & hardware support : Manuel Goepfert

Contact : metmap@orbifly.com




SOURCES & CREDITS :

   NOAA       Earth
Advisory